x

Central Caribbean - 210 Nm Sse Of Kingston, Jamaica (42058) Wave Buoy

4:50pm - Fri 29th Aug 2014 All times are EST. -5 hours from GMT.

  • Sig Wave height 7.9ft
  • Swell Direction
  • Peak Period 8s
  • Average Period 6s
  • Wind
    20mph, 25mph gusts
  • Sea Temp 84°f
  • 空気 Temp 84°f
  • Sea Pressure 1010.7mb
  • Central Caribbean - 210 Nm Sse Of Kingston, Jamaica
  • Central Caribbean - 210 Nm Sse Of Kingston, Jamaica

More Historic Weather Station data

Upgrade to MSW Pro to gain access to the past 30 days of data for over 8000 Wavebouys and Weather Stations around the globe.

Join Pro

Comparision Forecast

View Surf forecast
   
Fri 08/29 4:50pm 8ft 8s 6s 20 25 mph 1010.7mb 84f 84f
3:50pm 8ft 8s 6s 22 27 mph 1010.5mb 84f 83f
2:50pm 8ft 8s 6s 22 25 mph 1010.7mb 84f 83f
1:50pm 7ft 8s 6s 22 25 mph 1010.7mb 84f 83f
12:50pm 7ft 8s 6s 20 25 mph 1011.2mb 84f 83f
11:50am 6.5ft 8s 6s 16 20 mph 1011.7mb 84f 84f
10:50am 7ft 8s 6s 16 20 mph 1012.5mb 84f 84f
9:50am 6ft 8s 6s 18 22 mph 1011.8mb 84f 84f
8:50am 6ft 8s 6s 18 20 mph 1011.7mb 84f 84f
7:50am 6ft 8s 6s 18 22 mph 1011.6mb 84f 84f
6:50am 5.5ft 8s 6s 18 20 mph 1010.8mb 84f 83f
5:50am 6ft 8s 6s 18 22 mph 1009.9mb 84f 83f
4:50am 5.5ft 8s 5s 18 22 mph 1010.1mb 84f 83f
3:50am 5.5ft 7s 5s 18 22 mph 1009.8mb 84f 83f
2:50am 6ft 8s 6s 18 22 mph 1010.2mb 84f 83f
1:50am 5.5ft 8s 5s 20 25 mph 1010.8mb 84f 83f
12:50am 6ft 7s 5s 20 22 mph 1011mb 84f 83f
Thu 08/28 11:50pm 5.5ft 8s 5s 18 22 mph 1011.8mb 84f 83f
10:50pm 6ft 8s 5s 20 22 mph 1012.7mb 84f 83f
9:50pm 6ft 8s 5s 13 16 mph 1012.3mb 84f 82f
8:50pm 5.5ft 7s 5s 27 31 mph 1012.3mb 84f 81f
7:50pm 5ft 8s 5s 20 22 mph 1011.6mb 84f 84f
6:50pm 5.5ft 7s 5s 18 22 mph 1010.7mb 84f 83f
5:50pm 6ft 7s 6s 16 20 mph 1010.5mb 84f 81f
4:50pm 5.5ft 8s 6s 18 22 mph 1010.2mb 84f 83f
3:50pm 5ft 8s 5s 18 20 mph 1010.5mb 84f 82f
2:50pm 6ft 8s 5s 16 18 mph 1010.2mb 84f 81f
1:50pm 6ft 8s 6s 25 29 mph 1010.7mb 84f 80f
12:50pm 6ft 8s 5s 18 20 mph 1011.6mb 84f 83f
11:50am 5ft 8s 5s 16 18 mph 1012.5mb 84f 83f
10:50am 5ft 8s 5s 18 20 mph 1012.7mb 84f 82f
9:50am 4.5ft 7s 5s 20 25 mph 1012.8mb 84f 81f
8:50am 5ft 8s 5s 20 25 mph 1013.1mb 84f 83f
7:50am 5ft 8s 5s 16 20 mph 1012.9mb 84f 83f
6:50am 5ft 8s 5s 16 18 mph 1012.2mb 84f 83f
5:50am 5ft 8s 5s 16 18 mph 1011.5mb 84f 83f
4:50am 5ft 8s 5s 16 18 mph 1011.3mb 84f 83f
3:50am 5ft 8s 5s 18 20 mph 1011.2mb 84f 83f
2:50am 5ft 7s 5s 18 20 mph 1011.4mb 84f 83f
1:50am 4.5ft 7s 5s 18 20 mph 1012.1mb 84f 83f
12:50am 5ft 8s 5s 18 20 mph 1013mb 84f 83f
Wed 08/27 11:50pm 5ft 8s 5s 18 22 mph 1013.3mb 84f 83f
10:50pm 5.5ft 8s 5s 18 22 mph 1013.6mb 84f 83f
9:50pm 5.5ft 8s 5s 20 22 mph 1013.5mb 84f 83f
8:50pm 6ft 8s 6s 18 22 mph 1013.3mb 84f 84f
7:50pm 5ft 8s 5s 18 22 mph 1013.2mb 84f 84f
6:50pm 6.5ft 8s 6s 20 22 mph 1012.6mb 84f 84f
5:50pm 6ft 8s 6s 18 22 mph 1011.7mb 84f 84f
4:50pm 5.5ft 8s 5s 18 20 mph 1011.3mb 84f 84f
3:50pm 6ft 8s 5s 18 20 mph 1011.5mb 84f 84f
2:50pm 6ft 8s 5s 18 20 mph 1011.6mb 84f 84f
1:50pm 6ft 7s 5s 18 20 mph 1012.2mb 84f 84f
12:50pm 6ft 8s 6s 18 20 mph 1012.8mb 84f 84f
11:50am 5.5ft 8s 5s 18 22 mph 1013.3mb 84f 84f
10:50am 6ft 7s 5s 22 27 mph 1013.4mb 84f 84f
9:50am 6ft 8s 5s 20 27 mph 1013.4mb 84f 84f
8:50am 5.5ft 7s 5s 22 27 mph 1013.1mb 84f 84f
7:50am 5ft 7s 5s 22 27 mph 1012.3mb 84f 84f
6:50am 5ft 8s 5s 22 27 mph 1011.5mb 84f 84f
5:50am 5ft 7s 5s 20 25 mph 1011.2mb 84f 84f
4:50am 4.5ft 7s 5s 20 25 mph 1010.9mb 84f 84f
3:50am 4.5ft 7s 5s 20 25 mph 1010.6mb 84f 84f
2:50am 4ft 7s 5s 18 22 mph 1011.2mb 84f 84f
1:50am 4.5ft 7s 5s 18 20 mph 1011.7mb 84f 84f
12:50am 4ft 7s 5s 16 20 mph 1011.9mb 84f 84f
Tue 08/26 11:50pm 3.5ft 7s 5s 16 18 mph 1012.4mb 84f 84f
10:50pm 4ft 7s 5s 13 16 mph 1012.9mb 85f 84f
9:50pm 4ft 7s 5s 13 16 mph 1012.1mb 84f 84f
8:50pm 4.5ft 7s 5s 13 18 mph 1011.5mb 84f 84f
7:50pm 4ft 7s 5s 16 18 mph 1011.5mb 84f 84f
6:50pm 4ft 7s 5s 16 18 mph 1011.6mb 84f 84f
5:50pm 4ft 7s 5s 16 18 mph 1010.7mb 84f 84f
4:50pm 4ft 7s 5s 13 16 mph 1010.4mb 84f 84f
3:50pm 4ft 7s 5s 13 16 mph 1009.7mb 84f 84f
2:50pm 4ft 7s 5s 13 16 mph 1010mb 85f 84f
1:50pm 3.5ft 6s 5s 11 13 mph 1010.8mb 84f 84f
12:50pm 3.5ft 7s 5s 11 13 mph 1011.1mb 85f 83f
11:50am 3.5ft 7s 4s 18 20 mph 1011.5mb 84f 82f
10:50am 3.5ft 7s 4s 18 20 mph 1012mb 84f 84f
9:50am 3.5ft 7s 4s 16 18 mph 1012.1mb 84f 84f
8:50am 3.5ft 7s 5s 16 20 mph 1011.5mb 84f 84f
7:50am 3ft 7s 5s 13 16 mph 1011.1mb 84f 84f
6:50am 3ft 7s 5s 13 16 mph 1010.2mb 84f 84f
5:50am 3ft 6s 5s 13 16 mph 1009.7mb 84f 84f
4:50am 3ft 7s 5s 13 16 mph 1009.2mb 85f 84f
3:50am 3ft 7s 6s 11 13 mph 1009.1mb 85f 84f
2:50am 2.5ft 7s 6s 9 11 mph 1009mb 85f 84f
1:50am 2.5ft 7s 6s 7
mph
1009.2mb 85f 83f
12:50am 2.5ft 7s 6s 7 9 mph 1010mb 86f 84f
Mon 08/25 11:50pm 2.5ft 7s 6s 7 9 mph 1010.4mb 86f 83f
10:50pm 2.5ft 8s 6s 9
mph
1010.6mb 86f 84f